Time;durP1;ratioP1;P1;durP2;ratioP2;P2;SDS_P1;SDS_P2;PMS_P1;PMS_P2;Temp;Humidity;BMP_temperature;BMP_pressure;BME280_temperature;BME280_humidity;BME280_pressure;Samples;Min_cycle;Max_cycle;Signal;HPM_P1;HPM_P2
2023/06/18 00:00:08;;;;;;;19.13;17.08;;;;;;;14.52;73.76;93575.81;4988962;28;20037;-74
2023/06/18 00:02:34;;;;;;;18.40;16.45;;;;;;;14.62;73.69;93596.00;4987504;28;20523;-76
2023/06/18 00:05:00;;;;;;;18.83;16.90;;;;;;;14.57;74.02;93593.56;4988033;28;20137;-74
2023/06/18 00:07:25;;;;;;;18.35;16.08;;;;;;;14.53;74.19;93601.50;4987559;28;20023;-74
2023/06/18 00:09:50;;;;;;;21.30;18.92;;;;;;;14.50;74.85;93591.47;4993258;28;20394;-74
2023/06/18 00:12:16;;;;;;;19.10;17.00;;;;;;;14.52;74.80;93575.06;4987473;28;20042;-75
2023/06/18 00:14:41;;;;;;;21.60;18.00;;;;;;;14.73;73.83;93598.94;4989435;28;21046;-74
2023/06/18 00:17:06;;;;;;;22.52;17.80;;;;;;;14.80;73.61;93597.25;4987834;28;20041;-74
2023/06/18 00:19:32;;;;;;;20.98;18.60;;;;;;;14.67;73.53;93577.00;4988180;28;20742;-74
2023/06/18 00:21:59;;;;;;;20.92;18.75;;;;;;;14.59;73.75;93581.41;4990646;28;20057;-75
2023/06/18 00:24:25;;;;;;;19.95;17.83;;;;;;;14.70;74.26;93596.97;4989665;28;20038;-74
2023/06/18 00:26:50;;;;;;;20.17;18.00;;;;;;;14.74;74.19;93592.47;4988497;28;20030;-74
2023/06/18 00:29:16;;;;;;;20.75;18.40;;;;;;;14.71;73.24;93572.53;4989016;28;20030;-74
2023/06/18 00:31:41;;;;;;;20.67;18.48;;;;;;;14.81;74.16;93596.13;4988243;28;20030;-74
2023/06/18 00:34:07;;;;;;;24.02;18.02;;;;;;;14.65;73.50;93555.19;4992903;28;20068;-74
2023/06/18 00:36:33;;;;;;;19.73;17.25;;;;;;;14.70;73.74;93579.00;4986415;28;20484;-75
2023/06/18 00:39:03;;;;;;;19.73;17.65;;;;;;;14.90;73.22;93598.63;4986185;28;20058;-74
2023/06/18 00:41:30;;;;;;;26.92;19.50;;;;;;;14.80;73.51;93585.75;4986393;28;20030;-74
2023/06/18 00:43:57;;;;;;;22.30;19.58;;;;;;;14.84;73.80;93591.97;4986882;28;20544;-74
2023/06/18 00:46:25;;;;;;;23.02;18.98;;;;;;;14.85;73.50;93594.31;4988019;28;20120;-75
2023/06/18 00:48:51;;;;;;;23.80;19.58;;;;;;;14.81;73.54;93593.44;4988031;28;20093;-75
2023/06/18 00:51:17;;;;;;;22.00;18.30;;;;;;;14.64;73.80;93593.75;4987535;28;20453;-73
2023/06/18 00:53:43;;;;;;;20.48;18.38;;;;;;;14.53;75.13;93588.13;4996458;28;20030;-74
2023/06/18 00:56:09;;;;;;;24.90;19.60;;;;;;;14.75;73.69;93589.47;4989885;28;20068;-74
2023/06/18 00:58:35;;;;;;;22.17;19.83;;;;;;;14.72;74.11;93581.31;4992237;28;20396;-75
2023/06/18 01:01:01;;;;;;;22.40;19.77;;;;;;;14.67;74.19;93570.91;4995771;28;20224;-75
2023/06/18 01:03:28;;;;;;;21.75;18.33;;;;;;;14.81;73.82;93581.97;4990324;28;20042;-75
2023/06/18 01:05:57;;;;;;;23.25;19.50;;;;;;;14.71;73.70;93572.53;4990485;28;20045;-75
2023/06/18 01:08:24;;;;;;;23.98;21.25;;;;;;;14.68;73.90;93562.50;4993077;28;20042;-74
2023/06/18 01:11:09;;;;;;;23.00;20.02;;;;;;;14.86;73.75;93589.72;4989464;28;20040;-76
2023/06/18 01:13:41;;;;;;;27.02;20.33;;;;;;;14.85;73.69;93582.81;4988244;28;20046;-75
2023/06/18 01:16:08;;;;;;;22.73;20.33;;;;;;;14.70;74.18;93589.72;4993085;28;20117;-75
2023/06/18 01:18:39;;;;;;;24.52;20.85;;;;;;;14.88;73.76;93592.81;4991214;28;20152;-76
2023/06/18 01:21:09;;;;;;;22.38;19.08;;;;;;;14.97;73.20;93588.06;4991455;28;20045;-75
2023/06/18 01:23:58;;;;;;;21.95;19.58;;;;;;;14.93;73.03;93576.50;4991747;28;20030;-75
2023/06/18 01:26:26;;;;;;;23.73;19.50;;;;;;;14.75;73.88;93580.66;4991222;28;20053;-74
2023/06/18 01:28:52;;;;;;;23.02;20.33;;;;;;;14.77;73.78;93575.72;4994013;28;20042;-74
2023/06/18 01:31:22;;;;;;;23.80;21.27;;;;;;;14.78;74.00;93588.75;4992309;28;20045;-75
2023/06/18 01:33:51;;;;;;;25.42;21.88;;;;;;;14.62;75.14;93593.31;4988639;28;20512;-76
2023/06/18 01:36:30;;;;;;;24.92;20.20;;;;;;;14.58;74.94;93595.91;4989184;28;20144;-73
2023/06/18 01:39:03;;;;;;;23.77;21.15;;;;;;;14.66;74.94;93593.41;4992721;28;20117;-75
2023/06/18 01:41:35;;;;;;;25.10;22.02;;;;;;;14.63;74.68;93581.50;4988557;28;20188;-72
2023/06/18 01:44:08;;;;;;;23.55;21.05;;;;;;;14.76;74.42;93588.34;4990093;28;20239;-75
2023/06/18 01:46:34;;;;;;;24.90;22.20;;;;;;;14.76;74.01;93584.88;4990206;28;20033;-74
2023/06/18 01:49:04;;;;;;;27.95;20.77;;;;;;;14.52;75.08;93581.19;4991831;28;20037;-75
2023/06/18 01:51:31;;;;;;;24.88;22.13;;;;;;;14.47;75.07;93578.75;4990570;28;20038;-75
2023/06/18 01:53:59;;;;;;;24.90;21.40;;;;;;;14.54;74.93;93592.38;4990866;28;20089;-76
2023/06/18 01:56:28;;;;;;;26.45;21.13;;;;;;;14.36;75.84;93577.72;4990762;28;20042;-74
2023/06/18 01:58:54;;;;;;;24.00;21.08;;;;;;;14.26;76.34;93585.44;4991479;28;20434;-75
2023/06/18 02:01:20;;;;;;;27.35;23.08;;;;;;;14.39;76.19;93593.06;4989632;28;20045;-76
2023/06/18 02:03:45;;;;;;;28.00;22.40;;;;;;;14.41;76.29;93595.41;4990700;28;20046;-76
2023/06/18 02:06:11;;;;;;;26.85;22.13;;;;;;;14.44;75.61;93584.03;4991297;28;20092;-75
2023/06/18 02:08:36;;;;;;;25.48;22.35;;;;;;;14.52;76.10;93599.91;4991821;28;20037;-75
2023/06/18 02:11:02;;;;;;;27.65;22.20;;;;;;;14.45;75.94;93575.66;4992084;28;20109;-76
2023/06/18 02:13:27;;;;;;;24.83;20.33;;;;;;;14.70;74.53;93596.97;4989929;28;20046;-76
2023/06/18 02:15:53;;;;;;;25.17;21.67;;;;;;;14.58;75.25;93595.91;4987130;28;20966;-75
2023/06/18 02:18:18;;;;;;;26.85;21.95;;;;;;;14.34;76.25;93587.97;4988796;28;20066;-75
2023/06/18 02:20:44;;;;;;;27.58;22.75;;;;;;;14.54;75.49;93591.59;4990401;28;20033;-75
2023/06/18 02:23:10;;;;;;;24.63;21.35;;;;;;;14.56;75.35;93608.88;4989641;28;20041;-75
2023/06/18 02:25:35;;;;;;;23.70;20.70;;;;;;;14.33;75.95;93572.25;4989234;28;20014;-77
2023/06/18 02:28:02;;;;;;;25.48;21.80;;;;;;;14.74;74.70;93609.31;4990054;28;20049;-75
2023/06/18 02:30:31;;;;;;;24.48;21.67;;;;;;;14.64;74.88;93592.97;4988419;28;20072;-76
2023/06/18 02:33:01;;;;;;;23.63;20.88;;;;;;;14.63;75.35;93599.44;4991276;28;20053;-76
2023/06/18 02:35:27;;;;;;;25.92;22.52;;;;;;;14.57;75.74;93599.69;4989128;28;20045;-73
2023/06/18 02:37:53;;;;;;;26.08;21.38;;;;;;;14.57;75.93;93610.41;4990499;28;20029;-73
2023/06/18 02:40:19;;;;;;;24.10;21.23;;;;;;;14.58;74.98;93584.41;4990968;28;20482;-73
2023/06/18 02:42:48;;;;;;;24.30;21.55;;;;;;;14.79;74.81;93602.94;4990508;28;20124;-73
2023/06/18 02:45:18;;;;;;;23.25;20.75;;;;;;;14.81;73.75;93601.47;4988735;28;20093;-74
2023/06/18 02:47:45;;;;;;;23.95;20.90;;;;;;;14.77;74.56;93610.50;4989900;28;20038;-74
2023/06/18 02:50:11;;;;;;;23.98;20.13;;;;;;;14.74;74.81;93608.53;4989902;28;20451;-75
2023/06/18 02:52:39;;;;;;;22.83;20.17;;;;;;;14.70;74.82;93613.03;4990718;28;20029;-75
2023/06/18 02:55:06;;;;;;;23.40;20.90;;;;;;;14.76;74.67;93617.00;4988367;28;20035;-75
2023/06/18 02:57:32;;;;;;;24.20;21.63;;;;;;;14.83;74.25;93617.19;4988411;28;20060;-75
2023/06/18 02:59:57;;;;;;;22.90;20.20;;;;;;;14.58;74.35;93585.19;4987063;28;20513;-75
2023/06/18 03:02:23;;;;;;;24.80;21.17;;;;;;;14.64;75.17;93617.06;4989401;28;20032;-74
2023/06/18 03:04:49;;;;;;;24.42;20.10;;;;;;;14.81;74.28;93619.44;4990058;28;20092;-74
2023/06/18 03:07:14;;;;;;;23.77;20.25;;;;;;;14.77;74.64;93618.53;4989810;28;20136;-75
2023/06/18 03:09:40;;;;;;;24.60;19.42;;;;;;;14.74;75.23;93624.59;4991354;28;20069;-76
2023/06/18 03:12:05;;;;;;;21.88;19.38;;;;;;;14.74;75.16;93621.91;4989767;28;20038;-75
2023/06/18 03:14:31;;;;;;;23.15;20.45;;;;;;;14.79;74.24;93637.72;4988881;28;20417;-75
2023/06/18 03:16:56;;;;;;;23.52;20.95;;;;;;;14.67;75.07;93611.03;4989111;28;20624;-75
2023/06/18 03:19:22;;;;;;;23.05;20.50;;;;;;;14.67;75.46;93625.19;4992066;28;20508;-76
2023/06/18 03:21:48;;;;;;;23.88;21.02;;;;;;;14.79;74.57;93605.59;4989637;28;20817;-75
2023/06/18 03:24:14;;;;;;;25.05;22.00;;;;;;;14.73;74.69;93612.31;4989126;28;20601;-76
2023/06/18 03:26:41;;;;;;;25.67;22.48;;;;;;;14.70;74.88;93602.31;4989718;28;20045;-75
2023/06/18 03:29:07;;;;;;;23.30;20.77;;;;;;;14.73;75.32;93618.47;4990366;28;20453;-76
2023/06/18 03:31:33;;;;;;;23.95;20.83;;;;;;;14.80;75.48;93620.56;4987811;28;20034;-75
2023/06/18 03:34:01;;;;;;;23.48;20.85;;;;;;;14.74;75.03;93614.66;4986042;28;20549;-76
2023/06/18 03:36:28;;;;;;;23.85;20.85;;;;;;;14.76;75.01;93608.97;4991504;28;20038;-75
2023/06/18 03:38:54;;;;;;;26.50;21.65;;;;;;;14.74;74.57;93603.97;4989416;28;20042;-76
2023/06/18 03:41:21;;;;;;;25.65;20.77;;;;;;;14.63;75.09;93610.16;4990719;28;20162;-76
2023/06/18 03:43:46;;;;;;;23.95;21.30;;;;;;;14.72;75.61;93626.81;4986009;28;20316;-76
2023/06/18 03:46:12;;;;;;;22.55;20.13;;;;;;;14.87;74.76;93612.69;4988527;28;20396;-76
2023/06/18 03:48:38;;;;;;;24.17;20.63;;;;;;;14.94;74.22;93613.66;4991035;28;20073;-76
2023/06/18 03:51:04;;;;;;;24.27;21.70;;;;;;;14.91;74.55;93614.31;4986450;28;20209;-75
2023/06/18 03:53:30;;;;;;;23.52;21.08;;;;;;;15.04;74.38;93628.44;4988578;28;20322;-75
2023/06/18 03:55:55;;;;;;;24.38;21.58;;;;;;;15.16;73.97;93627.56;4988809;28;20116;-75
2023/06/18 03:58:21;;;;;;;23.42;20.88;;;;;;;15.04;74.19;93634.56;4990055;28;20039;-75
2023/06/18 04:00:47;;;;;;;22.13;19.30;;;;;;;15.06;73.72;93625.41;4988509;28;20552;-75
2023/06/18 04:03:12;;;;;;;22.25;19.52;;;;;;;15.13;73.61;93631.72;4986434;28;20678;-76
2023/06/18 04:05:38;;;;;;;27.17;21.77;;;;;;;14.99;74.10;93636.72;4988029;28;20034;-75
2023/06/18 04:08:04;;;;;;;23.35;20.50;;;;;;;15.09;73.66;93633.53;4989394;28;20052;-76
2023/06/18 04:10:29;;;;;;;21.67;19.38;;;;;;;15.11;73.76;93641.22;4988181;28;20111;-75
2023/06/18 04:12:54;;;;;;;22.38;19.63;;;;;;;15.16;73.67;93640.94;4987929;28;20037;-76
2023/06/18 04:15:20;;;;;;;23.50;20.02;;;;;;;15.14;73.64;93641.31;4986594;28;20137;-76
2023/06/18 04:17:46;;;;;;;26.52;20.33;;;;;;;15.11;73.62;93635.88;4989363;28;20042;-75
2023/06/18 04:20:12;;;;;;;24.10;19.67;;;;;;;15.19;73.70;93638.38;4995497;28;20026;-75
2023/06/18 04:22:37;;;;;;;23.65;19.92;;;;;;;15.17;73.72;93643.28;4989956;28;20501;-75
2023/06/18 04:25:03;;;;;;;20.42;18.23;;;;;;;15.11;73.77;93633.94;4989217;28;20045;-76
2023/06/18 04:27:28;;;;;;;22.95;20.33;;;;;;;15.20;73.16;93631.13;4987825;28;20064;-76
2023/06/18 04:29:53;;;;;;;23.88;21.38;;;;;;;15.23;73.27;93652.63;4987909;28;20030;-76
2023/06/18 04:32:19;;;;;;;25.65;19.25;;;;;;;15.18;73.98;93633.34;4984494;28;20076;-76
2023/06/18 04:34:44;;;;;;;25.17;19.58;;;;;;;15.13;74.03;93653.16;4988669;28;20493;-75
2023/06/18 04:37:10;;;;;;;20.52;18.33;;;;;;;15.08;74.04;93642.69;4994092;28;20034;-75
2023/06/18 04:39:35;;;;;;;23.33;20.13;;;;;;;15.06;73.38;93626.16;4989045;28;20030;-75
2023/06/18 04:42:01;;;;;;;24.75;20.13;;;;;;;15.35;73.28;93657.13;4995191;28;20120;-75
2023/06/18 04:44:26;;;;;;;25.88;19.38;;;;;;;15.14;73.54;93657.38;4990008;28;20042;-75
2023/06/18 04:46:51;;;;;;;22.20;19.77;;;;;;;15.13;73.46;93642.44;4988992;28;20026;-75
2023/06/18 04:49:17;;;;;;;23.25;19.52;;;;;;;15.00;74.05;93643.63;4986998;28;20043;-74
2023/06/18 04:51:43;;;;;;;23.63;19.83;;;;;;;14.94;73.95;93650.38;4988939;28;20036;-75
2023/06/18 04:54:09;;;;;;;26.38;20.13;;;;;;;15.08;74.04;93656.06;4987371;28;20037;-77
2023/06/18 04:56:34;;;;;;;21.55;18.95;;;;;;;15.15;73.67;93650.91;4987438;28;20041;-75
2023/06/18 04:59:00;;;;;;;22.33;19.58;;;;;;;15.23;73.30;93668.72;4987376;28;20137;-76
2023/06/18 05:01:25;;;;;;;22.83;20.15;;;;;;;15.23;74.44;93670.59;4986787;28;20044;-74
2023/06/18 05:03:51;;;;;;;21.00;18.65;;;;;;;15.12;74.99;93656.94;4988124;28;20025;-76
2023/06/18 05:06:16;;;;;;;21.15;18.20;;;;;;;15.28;74.08;93675.72;4987433;28;20039;-75
2023/06/18 05:08:42;;;;;;;31.35;19.67;;;;;;;15.24;72.67;93674.84;4989482;28;20036;-74
2023/06/18 05:11:07;;;;;;;21.73;18.30;;;;;;;15.20;72.69;93672.09;4986464;28;20125;-76
2023/06/18 05:13:33;;;;;;;24.70;19.15;;;;;;;15.29;72.56;93671.91;4988045;28;20390;-75
2023/06/18 05:15:58;;;;;;;20.45;18.30;;;;;;;15.29;72.85;93680.72;4985456;28;20140;-74
2023/06/18 05:18:23;;;;;;;21.27;18.15;;;;;;;15.41;72.89;93691.34;4987639;28;20401;-75
2023/06/18 05:20:49;;;;;;;20.42;18.27;;;;;;;15.29;71.87;93688.78;4990384;28;20045;-75
2023/06/18 05:23:14;;;;;;;26.48;18.52;;;;;;;15.38;72.76;93697.41;4988771;28;20025;-75
2023/06/18 05:25:40;;;;;;;21.30;17.30;;;;;;;15.42;71.63;93681.41;4989838;28;20423;-76
2023/06/18 05:28:05;;;;;;;19.90;17.90;;;;;;;15.59;71.12;93699.09;4987479;28;20247;-73
2023/06/18 05:30:31;;;;;;;20.98;17.52;;;;;;;15.67;71.39;93711.53;4986955;28;20148;-75
2023/06/18 05:32:56;;;;;;;19.77;17.67;;;;;;;15.42;72.29;93714.34;4988877;28;20124;-75
2023/06/18 05:35:21;;;;;;;22.88;18.70;;;;;;;15.43;71.77;93715.91;4986579;28;20065;-75
2023/06/18 05:37:47;;;;;;;20.60;18.23;;;;;;;15.44;71.72;93716.72;4989431;28;20496;-75
2023/06/18 05:40:12;;;;;;;22.17;17.33;;;;;;;15.35;72.32;93708.81;4987821;28;20048;-74
2023/06/18 05:42:40;;;;;;;21.40;18.52;;;;;;;15.55;71.54;93728.47;4988859;28;20045;-72
2023/06/18 05:45:07;;;;;;;22.27;17.42;;;;;;;15.57;71.35;93725.44;4993191;28;22607;-76
2023/06/18 05:47:34;;;;;;;21.27;17.77;;;;;;;15.58;71.52;93727.00;4991737;28;20037;-75
2023/06/18 05:50:00;;;;;;;21.02;18.77;;;;;;;15.39;72.32;93720.41;4990488;28;20038;-75
2023/06/18 05:52:25;;;;;;;21.20;18.73;;;;;;;15.55;72.09;93741.13;4992332;28;20575;-74
2023/06/18 05:54:50;;;;;;;21.13;18.92;;;;;;;15.52;71.86;93733.75;4997178;28;20078;-75
2023/06/18 05:57:16;;;;;;;24.40;18.00;;;;;;;15.64;71.19;93726.41;4992718;28;20038;-74
2023/06/18 05:59:41;;;;;;;27.23;19.33;;;;;;;15.55;71.84;93733.06;4990177;28;20454;-75
2023/06/18 06:02:07;;;;;;;21.70;18.77;;;;;;;15.64;71.60;93744.41;4992704;28;20428;-75
2023/06/18 06:04:32;;;;;;;21.15;18.83;;;;;;;15.58;71.49;93732.38;4991536;28;20021;-75
2023/06/18 06:06:58;;;;;;;20.48;18.23;;;;;;;15.44;72.01;93725.53;4992434;28;20057;-76
2023/06/18 06:09:23;;;;;;;20.88;18.67;;;;;;;15.46;72.29;93743.94;4989030;28;20081;-75
2023/06/18 06:11:48;;;;;;;20.25;18.05;;;;;;;15.51;72.29;93758.97;4998645;28;20114;-76
2023/06/18 06:14:14;;;;;;;20.25;17.98;;;;;;;15.34;72.88;93754.72;4990055;28;20080;-75
2023/06/18 06:16:39;;;;;;;20.75;17.55;;;;;;;15.35;72.89;93734.84;4991816;28;20037;-76
2023/06/18 06:19:05;;;;;;;22.83;18.27;;;;;;;15.37;73.31;93748.66;4995743;28;20034;-75
2023/06/18 06:21:33;;;;;;;20.92;18.73;;;;;;;15.61;72.26;93755.78;4989766;28;20076;-74
2023/06/18 06:23:58;;;;;;;20.77;17.63;;;;;;;15.49;72.40;93764.72;4989014;28;20042;-75
2023/06/18 06:26:24;;;;;;;19.42;17.50;;;;;;;15.47;72.62;93748.19;4991417;28;20030;-75
2023/06/18 06:28:49;;;;;;;21.35;18.27;;;;;;;15.58;73.13;93762.63;4988445;28;20029;-75
2023/06/18 06:31:15;;;;;;;23.17;18.15;;;;;;;15.60;73.08;93768.41;4988579;28;20038;-75
2023/06/18 06:33:40;;;;;;;19.05;17.05;;;;;;;15.84;72.34;93768.25;4990914;28;20049;-74
2023/06/18 06:36:09;;;;;;;21.00;17.50;;;;;;;15.99;71.91;93779.34;4990772;28;20450;-75
2023/06/18 06:38:34;;;;;;;19.63;17.52;;;;;;;15.92;71.83;93777.25;4987380;28;21054;-75
2023/06/18 06:41:00;;;;;;;20.10;17.52;;;;;;;15.95;71.48;93776.56;4993233;28;20041;-74
2023/06/18 06:43:25;;;;;;;20.00;17.42;;;;;;;16.01;72.06;93777.84;4990429;28;20259;-75
2023/06/18 06:45:50;;;;;;;19.40;16.77;;;;;;;15.99;71.42;93780.09;4987508;28;20626;-75
2023/06/18 06:48:16;;;;;;;19.42;17.42;;;;;;;16.04;71.68;93779.81;4990059;28;20041;-75
2023/06/18 06:50:41;;;;;;;23.38;17.85;;;;;;;16.14;71.55;93786.56;4980206;28;20041;-74
2023/06/18 06:53:07;;;;;;;20.05;17.48;;;;;;;15.41;70.89;93664.56;4986155;28;20030;-76
2023/06/18 06:55:32;;;;;;;18.80;16.80;;;;;;;16.00;71.84;93781.66;4990859;28;20460;-75
2023/06/18 06:57:57;;;;;;;20.48;18.25;;;;;;;15.94;72.26;93777.66;4987813;28;20046;-76
2023/06/18 07:00:23;;;;;;;18.90;16.42;;;;;;;15.96;71.76;93786.16;4989608;28;20034;-75
2023/06/18 07:02:48;;;;;;;20.63;17.92;;;;;;;16.04;71.70;93793.25;4990059;28;20034;-74
2023/06/18 07:05:14;;;;;;;20.45;17.17;;;;;;;15.97;72.57;93798.44;5006036;28;20058;-75
2023/06/18 07:07:40;;;;;;;21.38;17.40;;;;;;;16.01;72.97;93793.94;4991190;28;20410;-75
2023/06/18 07:10:05;;;;;;;19.27;16.58;;;;;;;16.10;71.90;93799.91;4983847;28;20128;-75
2023/06/18 07:12:31;;;;;;;18.48;16.55;;;;;;;16.14;71.65;93786.56;4991531;28;20038;-74
2023/06/18 07:14:56;;;;;;;18.25;16.35;;;;;;;16.21;71.45;93798.25;4987312;28;20050;-75
2023/06/18 07:17:21;;;;;;;18.00;15.95;;;;;;;16.18;71.26;93798.94;4987616;28;20076;-74
2023/06/18 07:19:47;;;;;;;20.33;15.55;;;;;;;16.23;72.18;93812.09;4988770;28;20026;-75
2023/06/18 07:22:12;;;;;;;19.02;15.10;;;;;;;16.12;71.71;93786.16;4992446;28;20042;-75
2023/06/18 07:24:37;;;;;;;17.50;15.63;;;;;;;16.31;70.57;93807.72;4992489;28;20102;-74
2023/06/18 07:27:03;;;;;;;18.60;15.82;;;;;;;16.35;71.79;93810.47;4987970;28;20061;-74
2023/06/18 07:29:30;;;;;;;20.30;16.48;;;;;;;16.29;72.81;93797.28;4987951;28;20029;-75
2023/06/18 07:31:55;;;;;;;18.40;14.82;;;;;;;16.30;71.54;93790.00;4991622;28;20034;-75
2023/06/18 07:34:21;;;;;;;18.50;16.00;;;;;;;16.16;71.49;93792.38;4987934;28;20340;-73
2023/06/18 07:36:46;;;;;;;17.33;14.77;;;;;;;16.35;71.08;93803.19;4987605;28;20069;-75
2023/06/18 07:39:11;;;;;;;20.00;15.95;;;;;;;16.44;71.18;93811.06;4988822;28;20452;-75
2023/06/18 07:41:37;;;;;;;18.55;15.02;;;;;;;16.52;70.75;93810.09;4990365;28;20034;-76
2023/06/18 07:44:02;;;;;;;17.35;15.48;;;;;;;16.60;70.41;93801.06;4990467;28;20038;-74
2023/06/18 07:46:28;;;;;;;16.70;15.00;;;;;;;16.73;70.31;93803.28;4989713;28;20405;-74
2023/06/18 07:48:53;;;;;;;16.63;14.68;;;;;;;16.75;70.36;93808.31;4993535;28;20069;-75
2023/06/18 07:51:18;;;;;;;17.75;14.77;;;;;;;16.61;70.01;93797.25;4989162;28;20034;-74
2023/06/18 07:53:44;;;;;;;16.17;13.90;;;;;;;16.85;68.63;93813.13;4985897;28;20405;-75
2023/06/18 07:56:10;;;;;;;18.63;14.85;;;;;;;16.78;69.00;93804.91;4986697;28;20396;-75
2023/06/18 07:58:35;;;;;;;15.98;14.05;;;;;;;16.49;69.64;93818.84;4991702;28;20030;-75
2023/06/18 08:01:00;;;;;;;16.92;14.15;;;;;;;16.47;70.21;93826.47;4989142;28;20034;-75
2023/06/18 08:03:26;;;;;;;18.13;16.17;;;;;;;16.56;70.08;93830.53;4989334;28;20049;-75
2023/06/18 08:05:51;;;;;;;18.25;15.25;;;;;;;16.79;69.57;93827.94;4988477;28;20854;-74
2023/06/18 08:08:16;;;;;;;18.40;15.52;;;;;;;16.42;70.89;93818.69;4987032;28;20026;-75
2023/06/18 08:10:42;;;;;;;19.63;15.27;;;;;;;16.56;70.16;93827.06;4988503;28;20026;-75
2023/06/18 08:13:07;;;;;;;17.35;15.15;;;;;;;16.62;70.12;93815.69;4987096;28;20313;-75
2023/06/18 08:15:33;;;;;;;19.05;15.95;;;;;;;16.74;69.81;93831.69;4985079;28;20137;-75
2023/06/18 08:17:58;;;;;;;15.23;13.23;;;;;;;16.74;69.85;93836.28;4986479;28;20164;-74
2023/06/18 08:20:24;;;;;;;15.55;13.80;;;;;;;16.82;69.29;93834.53;4989060;28;20482;-74
2023/06/18 08:22:51;;;;;;;16.05;14.32;;;;;;;16.68;69.49;93835.78;4988032;28;20026;-75
2023/06/18 08:25:17;;;;;;;17.80;13.13;;;;;;;16.64;69.53;93826.06;4987704;28;20043;-75
2023/06/18 08:27:42;;;;;;;15.02;13.48;;;;;;;16.72;69.32;93846.59;4987259;28;20041;-74
2023/06/18 08:30:08;;;;;;;19.20;13.60;;;;;;;16.84;69.31;93857.22;4988666;28;20092;-75
2023/06/18 08:32:33;;;;;;;16.73;14.70;;;;;;;16.75;69.08;93854.72;4986296;28;20050;-75
2023/06/18 08:35:00;;;;;;;16.15;13.55;;;;;;;16.54;69.83;93854.25;4995072;28;20033;-74
2023/06/18 08:37:26;;;;;;;17.55;13.85;;;;;;;16.57;68.93;93842.06;4989807;28;20447;-75
2023/06/18 08:39:51;;;;;;;15.80;14.20;;;;;;;16.59;70.08;93861.25;4986342;28;20568;-75
2023/06/18 08:42:22;;;;;;;17.42;14.27;;;;;;;16.70;70.21;93863.06;4988838;28;20112;-75
2023/06/18 08:44:48;;;;;;;16.35;13.85;;;;;;;16.71;69.21;93847.72;4986702;28;20082;-76
2023/06/18 08:47:15;;;;;;;21.23;14.95;;;;;;;16.84;69.25;93872.56;4989859;28;20053;-75
2023/06/18 08:49:42;;;;;;;15.45;13.93;;;;;;;16.83;69.38;93865.63;4987098;28;20053;-75
2023/06/18 08:52:09;;;;;;;18.23;14.00;;;;;;;16.79;69.98;93860.19;4989987;28;20503;-74
2023/06/18 08:54:36;;;;;;;16.38;13.90;;;;;;;16.92;70.24;93860.81;4986179;28;20485;-75
2023/06/18 08:57:24;;;;;;;15.20;13.68;;;;;;;17.09;69.48;93861.22;4987749;28;20486;-75
2023/06/18 08:59:50;;;;;;;15.65;14.02;;;;;;;16.75;70.82;93835.16;4987863;28;20112;-75
2023/06/18 09:02:20;;;;;;;14.85;13.35;;;;;;;17.03;69.84;93862.63;4989549;28;20111;-75
2023/06/18 09:04:46;;;;;;;18.25;14.15;;;;;;;16.99;70.24;93848.34;4990176;28;20010;-75
2023/06/18 09:07:11;;;;;;;16.00;13.73;;;;;;;16.66;70.26;93829.19;5003867;28;20073;-75
2023/06/18 09:09:37;;;;;;;14.60;13.20;;;;;;;16.79;69.82;93822.56;4987473;28;20084;-75
2023/06/18 09:12:03;;;;;;;14.25;12.85;;;;;;;17.04;70.59;93866.09;4987417;28;20042;-75
2023/06/18 09:14:28;;;;;;;16.33;13.60;;;;;;;16.93;70.80;93857.78;4985786;28;20100;-75
2023/06/18 09:16:54;;;;;;;14.15;12.65;;;;;;;17.02;69.91;93871.00;4988921;28;20058;-75
2023/06/18 09:19:20;;;;;;;28.92;13.93;;;;;;;17.03;69.39;93854.56;5000607;28;20037;-75
2023/06/18 09:21:46;;;;;;;15.30;13.68;;;;;;;17.11;68.76;93860.88;4991280;28;20080;-74
2023/06/18 09:24:19;;;;;;;19.10;13.50;;;;;;;17.00;70.35;93865.22;4991631;28;20512;-75
2023/06/18 09:26:44;;;;;;;13.82;12.43;;;;;;;17.06;69.38;93867.28;4991679;28;20052;-75
2023/06/18 09:29:11;;;;;;;14.02;12.65;;;;;;;17.06;69.81;93869.22;4992124;28;20026;-75
2023/06/18 09:31:44;;;;;;;14.07;11.82;;;;;;;17.11;69.96;93869.69;4993536;28;20022;-75
2023/06/18 09:34:18;;;;;;;13.88;11.93;;;;;;;17.14;70.21;93870.94;4993289;28;20038;-75
2023/06/18 09:36:46;;;;;;;13.35;11.98;;;;;;;17.29;68.19;93866.63;4991795;28;20531;-74
2023/06/18 09:39:21;;;;;;;12.50;11.25;;;;;;;17.29;68.55;93867.41;4992401;28;20037;-76
2023/06/18 09:41:49;;;;;;;13.85;12.45;;;;;;;17.16;67.20;93831.81;5004023;28;20044;-76
2023/06/18 09:44:15;;;;;;;12.95;11.38;;;;;;;17.36;67.86;93862.16;4993182;28;20022;-75
2023/06/18 09:46:49;;;;;;;12.60;11.10;;;;;;;17.29;68.92;93858.56;4989378;28;20401;-75
2023/06/18 09:49:19;;;;;;;12.93;11.57;;;;;;;17.41;67.72;93866.47;4990550;28;20496;-75
2023/06/18 09:51:49;;;;;;;12.38;10.95;;;;;;;17.30;67.72;93835.94;4989195;28;20037;-75
2023/06/18 09:54:15;;;;;;;12.90;11.65;;;;;;;17.41;67.25;93861.09;4991733;28;20386;-74
2023/06/18 09:57:02;;;;;;;14.30;10.70;;;;;;;17.39;67.20;93860.69;4989239;28;20046;-75
2023/06/18 09:59:28;;;;;;;11.20;9.98;;;;;;;17.48;66.49;93861.25;4984219;28;20049;-75
2023/06/18 10:01:57;;;;;;;12.38;11.25;;;;;;;17.50;66.24;93856.31;4986411;28;20026;-75
2023/06/18 10:04:22;;;;;;;11.40;10.20;;;;;;;17.54;65.84;93862.53;4989674;28;20069;-73
2023/06/18 10:06:58;;;;;;;10.73;9.65;;;;;;;17.45;65.69;93853.91;4992043;28;20121;-74
2023/06/18 10:09:32;;;;;;;13.32;10.90;;;;;;;17.38;66.83;93853.75;4988002;28;20121;-76
2023/06/18 10:12:00;;;;;;;10.55;9.50;;;;;;;17.53;66.35;93869.81;4991355;28;20476;-75
2023/06/18 10:14:30;;;;;;;12.10;9.88;;;;;;;17.34;67.29;93847.53;4988888;28;20050;-76
2023/06/18 10:17:12;;;;;;;15.70;9.93;;;;;;;17.57;66.45;93864.50;4990189;28;20034;-75
2023/06/18 10:19:47;;;;;;;10.63;9.52;;;;;;;17.63;65.67;93867.66;4992816;28;20038;-74
2023/06/18 10:22:14;;;;;;;12.40;9.15;;;;;;;17.75;65.65;93848.66;4988916;28;20034;-76
2023/06/18 10:25:04;;;;;;;12.40;10.30;;;;;;;17.85;65.85;93856.94;4987333;28;20136;-75
2023/06/18 10:27:30;;;;;;;11.05;9.95;;;;;;;17.75;66.24;93840.59;4991148;28;20222;-75
2023/06/18 10:29:59;;;;;;;11.98;10.57;;;;;;;17.86;66.67;93850.44;4985159;28;20094;-74
2023/06/18 10:32:26;;;;;;;11.32;9.63;;;;;;;18.06;65.29;93853.09;4991650;28;20740;-76
2023/06/18 10:34:54;;;;;;;11.23;10.13;;;;;;;18.02;65.29;93853.81;4991671;28;20038;-75
2023/06/18 10:37:21;;;;;;;11.38;9.85;;;;;;;17.90;65.65;93821.66;4990787;28;20153;-75
2023/06/18 10:39:47;;;;;;;11.45;10.23;;;;;;;17.90;66.15;93845.09;4987277;28;20054;-73
2023/06/18 10:42:15;;;;;;;10.98;9.82;;;;;;;17.87;66.71;93833.16;4989486;28;20561;-74
2023/06/18 10:44:53;;;;;;;10.55;9.45;;;;;;;18.08;66.53;93842.75;4990393;28;20041;-75
2023/06/18 10:47:23;;;;;;;11.18;10.07;;;;;;;18.13;65.56;93834.38;4988091;28;20022;-74
2023/06/18 10:50:01;;;;;;;9.63;8.65;;;;;;;18.31;63.48;93846.22;4988713;28;20030;-74
2023/06/18 10:52:30;;;;;;;10.00;8.02;;;;;;;18.25;64.97;93844.94;4990547;28;20386;-75
2023/06/18 10:55:08;;;;;;;9.25;8.35;;;;;;;18.33;64.60;93843.94;4988524;28;20045;-76
2023/06/18 10:58:01;;;;;;;9.45;8.45;;;;;;;18.43;63.28;93833.31;4988532;28;20520;-74
2023/06/18 11:00:41;;;;;;;9.07;8.20;;;;;;;18.28;62.77;93820.81;4994004;28;20049;-75
2023/06/18 11:03:17;;;;;;;9.75;8.75;;;;;;;18.35;63.56;93833.56;4990617;28;20045;-75
2023/06/18 11:05:51;;;;;;;9.00;8.10;;;;;;;18.42;63.66;93831.00;4991427;28;20065;-75
2023/06/18 11:08:26;;;;;;;8.53;7.63;;;;;;;18.36;65.07;93833.22;4990833;28;20034;-75
2023/06/18 11:11:03;;;;;;;12.35;9.43;;;;;;;18.35;66.17;93825.50;4987432;28;20022;-75
2023/06/18 11:13:34;;;;;;;10.13;9.13;;;;;;;18.56;63.51;93831.22;4991321;28;20212;-75
2023/06/18 11:16:09;;;;;;;10.80;9.70;;;;;;;18.50;64.34;93826.50;4990919;28;20156;-76
2023/06/18 11:18:35;;;;;;;9.23;8.30;;;;;;;18.59;65.26;93838.56;4986788;28;20449;-75